sensor_id;sensor_type;location;lat;lon;timestamp;P1;durP1;ratioP1;P2;durP2;ratioP2
71977;SDS011;59848;48.158;11.512;2022-08-21T00:01:57;6.20;;;2.70;;
71977;SDS011;59848;48.158;11.512;2022-08-21T00:04:23;5.00;;;2.92;;
71977;SDS011;59848;48.158;11.512;2022-08-21T00:06:50;7.15;;;2.80;;
71977;SDS011;59848;48.158;11.512;2022-08-21T00:09:16;4.93;;;2.70;;
71977;SDS011;59848;48.158;11.512;2022-08-21T00:11:42;4.65;;;2.63;;
71977;SDS011;59848;48.158;11.512;2022-08-21T00:14:08;4.82;;;2.78;;
71977;SDS011;59848;48.158;11.512;2022-08-21T00:16:35;3.60;;;2.63;;
71977;SDS011;59848;48.158;11.512;2022-08-21T00:19:01;3.05;;;2.35;;
71977;SDS011;59848;48.158;11.512;2022-08-21T00:21:26;3.53;;;2.55;;
71977;SDS011;59848;48.158;11.512;2022-08-21T00:23:52;5.07;;;2.33;;
71977;SDS011;59848;48.158;11.512;2022-08-21T00:26:18;6.25;;;2.53;;
71977;SDS011;59848;48.158;11.512;2022-08-21T00:28:43;2.65;;;2.17;;
71977;SDS011;59848;48.158;11.512;2022-08-21T00:31:11;4.57;;;2.83;;
71977;SDS011;59848;48.158;11.512;2022-08-21T00:33:36;3.25;;;2.50;;
71977;SDS011;59848;48.158;11.512;2022-08-21T00:36:02;3.67;;;2.38;;
71977;SDS011;59848;48.158;11.512;2022-08-21T00:38:28;3.58;;;2.40;;
71977;SDS011;59848;48.158;11.512;2022-08-21T00:40:59;3.97;;;2.10;;
71977;SDS011;59848;48.158;11.512;2022-08-21T00:43:28;4.28;;;2.30;;
71977;SDS011;59848;48.158;11.512;2022-08-21T00:45:55;3.50;;;2.20;;
71977;SDS011;59848;48.158;11.512;2022-08-21T00:48:23;2.70;;;2.05;;
71977;SDS011;59848;48.158;11.512;2022-08-21T00:50:50;3.88;;;2.28;;
71977;SDS011;59848;48.158;11.512;2022-08-21T00:53:21;3.97;;;2.22;;
71977;SDS011;59848;48.158;11.512;2022-08-21T00:55:47;5.13;;;2.42;;
71977;SDS011;59848;48.158;11.512;2022-08-21T00:58:14;2.78;;;2.10;;
71977;SDS011;59848;48.158;11.512;2022-08-21T01:00:40;5.65;;;2.38;;
71977;SDS011;59848;48.158;11.512;2022-08-21T01:03:13;4.00;;;2.15;;
71977;SDS011;59848;48.158;11.512;2022-08-21T01:05:40;3.75;;;2.63;;
71977;SDS011;59848;48.158;11.512;2022-08-21T01:08:07;4.43;;;2.60;;
71977;SDS011;59848;48.158;11.512;2022-08-21T01:10:35;4.93;;;2.40;;
71977;SDS011;59848;48.158;11.512;2022-08-21T01:13:02;3.67;;;2.50;;
71977;SDS011;59848;48.158;11.512;2022-08-21T01:15:32;2.63;;;2.22;;
71977;SDS011;59848;48.158;11.512;2022-08-21T01:18:01;3.30;;;2.30;;
71977;SDS011;59848;48.158;11.512;2022-08-21T01:20:31;3.42;;;2.40;;
71977;SDS011;59848;48.158;11.512;2022-08-21T01:22:57;3.35;;;2.33;;
71977;SDS011;59848;48.158;11.512;2022-08-21T01:25:23;3.80;;;2.53;;
71977;SDS011;59848;48.158;11.512;2022-08-21T01:27:48;3.90;;;2.28;;
71977;SDS011;59848;48.158;11.512;2022-08-21T01:30:17;3.90;;;2.80;;
71977;SDS011;59848;48.158;11.512;2022-08-21T01:32:45;4.78;;;2.30;;
71977;SDS011;59848;48.158;11.512;2022-08-21T01:35:13;4.57;;;2.60;;
71977;SDS011;59848;48.158;11.512;2022-08-21T01:37:41;3.97;;;2.50;;
71977;SDS011;59848;48.158;11.512;2022-08-21T01:40:08;3.28;;;2.30;;
71977;SDS011;59848;48.158;11.512;2022-08-21T01:42:34;4.20;;;2.22;;
71977;SDS011;59848;48.158;11.512;2022-08-21T01:45:02;6.32;;;2.70;;
71977;SDS011;59848;48.158;11.512;2022-08-21T01:47:29;3.50;;;2.30;;
71977;SDS011;59848;48.158;11.512;2022-08-21T01:49:55;4.13;;;2.38;;
71977;SDS011;59848;48.158;11.512;2022-08-21T01:52:21;3.17;;;2.35;;
71977;SDS011;59848;48.158;11.512;2022-08-21T01:54:46;3.30;;;2.33;;
71977;SDS011;59848;48.158;11.512;2022-08-21T01:57:12;3.45;;;2.35;;
71977;SDS011;59848;48.158;11.512;2022-08-21T01:59:39;3.53;;;2.30;;
71977;SDS011;59848;48.158;11.512;2022-08-21T02:02:05;3.22;;;2.22;;
71977;SDS011;59848;48.158;11.512;2022-08-21T02:04:31;5.80;;;2.50;;
71977;SDS011;59848;48.158;11.512;2022-08-21T02:06:57;2.58;;;2.10;;
71977;SDS011;59848;48.158;11.512;2022-08-21T02:09:24;2.72;;;2.15;;
71977;SDS011;59848;48.158;11.512;2022-08-21T02:11:49;3.38;;;2.40;;
71977;SDS011;59848;48.158;11.512;2022-08-21T02:14:16;3.55;;;2.70;;
71977;SDS011;59848;48.158;11.512;2022-08-21T02:16:42;4.32;;;2.42;;
71977;SDS011;59848;48.158;11.512;2022-08-21T02:19:09;3.08;;;2.30;;
71977;SDS011;59848;48.158;11.512;2022-08-21T02:21:36;3.40;;;2.08;;
71977;SDS011;59848;48.158;11.512;2022-08-21T02:24:02;4.03;;;2.40;;
71977;SDS011;59848;48.158;11.512;2022-08-21T02:26:28;3.35;;;2.33;;
71977;SDS011;59848;48.158;11.512;2022-08-21T02:28:54;3.60;;;2.30;;
71977;SDS011;59848;48.158;11.512;2022-08-21T02:31:19;4.18;;;2.35;;
71977;SDS011;59848;48.158;11.512;2022-08-21T02:33:45;4.35;;;2.60;;
71977;SDS011;59848;48.158;11.512;2022-08-21T02:36:10;3.00;;;2.30;;
71977;SDS011;59848;48.158;11.512;2022-08-21T02:38:37;4.85;;;2.70;;
71977;SDS011;59848;48.158;11.512;2022-08-21T02:41:06;4.03;;;2.38;;
71977;SDS011;59848;48.158;11.512;2022-08-21T02:43:34;4.25;;;2.38;;
71977;SDS011;59848;48.158;11.512;2022-08-21T02:46:00;4.07;;;2.20;;
71977;SDS011;59848;48.158;11.512;2022-08-21T02:48:28;3.97;;;2.45;;
71977;SDS011;59848;48.158;11.512;2022-08-21T02:51:14;4.10;;;2.58;;
71977;SDS011;59848;48.158;11.512;2022-08-21T02:53:42;3.97;;;2.50;;
71977;SDS011;59848;48.158;11.512;2022-08-21T02:56:09;3.85;;;2.25;;
71977;SDS011;59848;48.158;11.512;2022-08-21T02:58:41;3.63;;;2.35;;
71977;SDS011;59848;48.158;11.512;2022-08-21T03:01:09;3.25;;;2.40;;
71977;SDS011;59848;48.158;11.512;2022-08-21T03:03:36;4.47;;;2.55;;
71977;SDS011;59848;48.158;11.512;2022-08-21T03:06:04;6.75;;;2.63;;
71977;SDS011;59848;48.158;11.512;2022-08-21T03:08:31;4.88;;;2.50;;
71977;SDS011;59848;48.158;11.512;2022-08-21T03:10:57;3.67;;;2.70;;
71977;SDS011;59848;48.158;11.512;2022-08-21T03:13:24;4.85;;;2.70;;
71977;SDS011;59848;48.158;11.512;2022-08-21T03:15:50;4.60;;;2.50;;
71977;SDS011;59848;48.158;11.512;2022-08-21T03:18:16;3.38;;;2.83;;
71977;SDS011;59848;48.158;11.512;2022-08-21T03:20:42;4.00;;;2.63;;
71977;SDS011;59848;48.158;11.512;2022-08-21T03:23:10;4.30;;;3.08;;
71977;SDS011;59848;48.158;11.512;2022-08-21T03:25:36;4.40;;;2.67;;
71977;SDS011;59848;48.158;11.512;2022-08-21T03:28:03;5.40;;;2.63;;
71977;SDS011;59848;48.158;11.512;2022-08-21T03:30:31;4.70;;;2.97;;
71977;SDS011;59848;48.158;11.512;2022-08-21T03:32:57;3.97;;;2.78;;
71977;SDS011;59848;48.158;11.512;2022-08-21T03:35:23;3.63;;;2.60;;
71977;SDS011;59848;48.158;11.512;2022-08-21T03:37:49;3.70;;;2.78;;
71977;SDS011;59848;48.158;11.512;2022-08-21T03:40:16;3.67;;;2.78;;
71977;SDS011;59848;48.158;11.512;2022-08-21T03:42:43;3.78;;;2.70;;
71977;SDS011;59848;48.158;11.512;2022-08-21T03:45:10;3.30;;;2.55;;
71977;SDS011;59848;48.158;11.512;2022-08-21T03:47:35;5.30;;;2.67;;
71977;SDS011;59848;48.158;11.512;2022-08-21T03:50:03;5.05;;;2.78;;
71977;SDS011;59848;48.158;11.512;2022-08-21T03:52:29;5.47;;;3.13;;
71977;SDS011;59848;48.158;11.512;2022-08-21T03:54:55;3.92;;;2.92;;
71977;SDS011;59848;48.158;11.512;2022-08-21T03:57:20;4.28;;;2.97;;
71977;SDS011;59848;48.158;11.512;2022-08-21T03:59:46;4.72;;;3.03;;
71977;SDS011;59848;48.158;11.512;2022-08-21T04:02:12;3.85;;;2.72;;
71977;SDS011;59848;48.158;11.512;2022-08-21T04:04:41;4.75;;;2.90;;
71977;SDS011;59848;48.158;11.512;2022-08-21T04:07:07;5.65;;;3.13;;
71977;SDS011;59848;48.158;11.512;2022-08-21T04:09:33;4.05;;;2.90;;
71977;SDS011;59848;48.158;11.512;2022-08-21T04:11:59;7.32;;;3.10;;
71977;SDS011;59848;48.158;11.512;2022-08-21T04:14:25;6.28;;;3.40;;
71977;SDS011;59848;48.158;11.512;2022-08-21T04:16:51;6.63;;;3.35;;
71977;SDS011;59848;48.158;11.512;2022-08-21T04:19:16;4.78;;;3.28;;
71977;SDS011;59848;48.158;11.512;2022-08-21T04:21:42;4.35;;;2.90;;
71977;SDS011;59848;48.158;11.512;2022-08-21T04:24:08;5.50;;;3.28;;
71977;SDS011;59848;48.158;11.512;2022-08-21T04:26:35;8.63;;;3.40;;
71977;SDS011;59848;48.158;11.512;2022-08-21T04:29:02;5.63;;;3.00;;
71977;SDS011;59848;48.158;11.512;2022-08-21T04:31:29;4.63;;;3.13;;
71977;SDS011;59848;48.158;11.512;2022-08-21T04:33:55;4.82;;;3.40;;
71977;SDS011;59848;48.158;11.512;2022-08-21T04:36:21;4.47;;;3.40;;
71977;SDS011;59848;48.158;11.512;2022-08-21T04:38:47;7.43;;;3.28;;
71977;SDS011;59848;48.158;11.512;2022-08-21T04:41:13;5.82;;;3.42;;
71977;SDS011;59848;48.158;11.512;2022-08-21T04:43:39;5.63;;;3.20;;
71977;SDS011;59848;48.158;11.512;2022-08-21T04:46:05;5.03;;;3.08;;
71977;SDS011;59848;48.158;11.512;2022-08-21T04:48:31;5.25;;;3.05;;
71977;SDS011;59848;48.158;11.512;2022-08-21T04:53:47;4.30;;;3.00;;
71977;SDS011;59848;48.158;11.512;2022-08-21T04:58:48;7.38;;;3.60;;
71977;SDS011;59848;48.158;11.512;2022-08-21T05:01:17;3.97;;;3.00;;
71977;SDS011;59848;48.158;11.512;2022-08-21T05:03:45;5.05;;;3.33;;
71977;SDS011;59848;48.158;11.512;2022-08-21T05:06:13;6.03;;;3.97;;
71977;SDS011;59848;48.158;11.512;2022-08-21T05:08:41;5.38;;;3.28;;
71977;SDS011;59848;48.158;11.512;2022-08-21T05:11:10;5.15;;;3.42;;
71977;SDS011;59848;48.158;11.512;2022-08-21T05:13:36;7.53;;;3.67;;
71977;SDS011;59848;48.158;11.512;2022-08-21T05:16:01;5.28;;;3.30;;
71977;SDS011;59848;48.158;11.512;2022-08-21T05:18:27;4.45;;;3.20;;
71977;SDS011;59848;48.158;11.512;2022-08-21T05:20:53;4.63;;;3.03;;
71977;SDS011;59848;48.158;11.512;2022-08-21T05:23:18;7.35;;;3.53;;
71977;SDS011;59848;48.158;11.512;2022-08-21T05:25:44;6.18;;;2.92;;
71977;SDS011;59848;48.158;11.512;2022-08-21T05:28:10;4.88;;;3.15;;
71977;SDS011;59848;48.158;11.512;2022-08-21T05:30:36;4.07;;;2.97;;
71977;SDS011;59848;48.158;11.512;2022-08-21T05:33:02;3.40;;;2.83;;
71977;SDS011;59848;48.158;11.512;2022-08-21T05:35:29;6.40;;;3.28;;
71977;SDS011;59848;48.158;11.512;2022-08-21T05:37:55;6.80;;;2.80;;
71977;SDS011;59848;48.158;11.512;2022-08-21T05:40:22;3.88;;;2.85;;
71977;SDS011;59848;48.158;11.512;2022-08-21T05:42:47;6.00;;;3.25;;
71977;SDS011;59848;48.158;11.512;2022-08-21T05:45:14;5.68;;;3.20;;
71977;SDS011;59848;48.158;11.512;2022-08-21T05:47:39;5.40;;;3.55;;
71977;SDS011;59848;48.158;11.512;2022-08-21T05:50:05;3.60;;;2.88;;
71977;SDS011;59848;48.158;11.512;2022-08-21T05:52:31;5.57;;;2.70;;
71977;SDS011;59848;48.158;11.512;2022-08-21T05:54:57;4.03;;;2.20;;
71977;SDS011;59848;48.158;11.512;2022-08-21T05:57:22;3.42;;;2.60;;
71977;SDS011;59848;48.158;11.512;2022-08-21T05:59:48;4.20;;;2.35;;
71977;SDS011;59848;48.158;11.512;2022-08-21T06:02:16;4.70;;;2.63;;
71977;SDS011;59848;48.158;11.512;2022-08-21T06:04:43;3.08;;;2.40;;
71977;SDS011;59848;48.158;11.512;2022-08-21T06:07:08;3.60;;;2.20;;
71977;SDS011;59848;48.158;11.512;2022-08-21T06:09:34;5.07;;;2.58;;
71977;SDS011;59848;48.158;11.512;2022-08-21T06:12:03;4.35;;;2.20;;
71977;SDS011;59848;48.158;11.512;2022-08-21T06:14:30;4.35;;;2.38;;
71977;SDS011;59848;48.158;11.512;2022-08-21T06:17:00;3.90;;;2.30;;
71977;SDS011;59848;48.158;11.512;2022-08-21T06:19:36;3.50;;;2.20;;
71977;SDS011;59848;48.158;11.512;2022-08-21T06:22:03;4.70;;;2.50;;
71977;SDS011;59848;48.158;11.512;2022-08-21T06:24:29;2.92;;;2.20;;
71977;SDS011;59848;48.158;11.512;2022-08-21T06:26:54;4.22;;;2.33;;
71977;SDS011;59848;48.158;11.512;2022-08-21T06:29:20;3.88;;;2.50;;
71977;SDS011;59848;48.158;11.512;2022-08-21T06:31:47;4.70;;;2.35;;
71977;SDS011;59848;48.158;11.512;2022-08-21T06:34:14;3.20;;;2.13;;
71977;SDS011;59848;48.158;11.512;2022-08-21T06:36:40;5.95;;;2.78;;
71977;SDS011;59848;48.158;11.512;2022-08-21T06:39:06;3.10;;;2.38;;
71977;SDS011;59848;48.158;11.512;2022-08-21T06:41:31;4.40;;;2.22;;
71977;SDS011;59848;48.158;11.512;2022-08-21T06:43:57;3.58;;;2.10;;
71977;SDS011;59848;48.158;11.512;2022-08-21T06:46:23;3.78;;;2.50;;
71977;SDS011;59848;48.158;11.512;2022-08-21T06:48:51;5.30;;;2.38;;
71977;SDS011;59848;48.158;11.512;2022-08-21T06:51:16;4.47;;;2.20;;
71977;SDS011;59848;48.158;11.512;2022-08-21T06:53:42;4.65;;;2.35;;
71977;SDS011;59848;48.158;11.512;2022-08-21T06:56:08;6.53;;;2.50;;
71977;SDS011;59848;48.158;11.512;2022-08-21T06:58:34;2.83;;;2.25;;
71977;SDS011;59848;48.158;11.512;2022-08-21T07:00:59;2.88;;;2.38;;
71977;SDS011;59848;48.158;11.512;2022-08-21T07:03:30;5.40;;;2.15;;
71977;SDS011;59848;48.158;11.512;2022-08-21T07:06:01;4.72;;;2.10;;
71977;SDS011;59848;48.158;11.512;2022-08-21T07:08:29;5.68;;;2.35;;
71977;SDS011;59848;48.158;11.512;2022-08-21T07:10:55;3.78;;;2.10;;
71977;SDS011;59848;48.158;11.512;2022-08-21T07:13:22;4.72;;;2.55;;
71977;SDS011;59848;48.158;11.512;2022-08-21T07:15:48;4.32;;;2.40;;
71977;SDS011;59848;48.158;11.512;2022-08-21T07:18:14;3.55;;;2.17;;
71977;SDS011;59848;48.158;11.512;2022-08-21T07:20:40;3.78;;;2.80;;
71977;SDS011;59848;48.158;11.512;2022-08-21T07:23:08;3.95;;;2.15;;
71977;SDS011;59848;48.158;11.512;2022-08-21T07:25:36;4.07;;;2.40;;
71977;SDS011;59848;48.158;11.512;2022-08-21T07:28:02;3.88;;;2.25;;
71977;SDS011;59848;48.158;11.512;2022-08-21T07:30:27;5.45;;;2.17;;
71977;SDS011;59848;48.158;11.512;2022-08-21T07:32:53;3.90;;;2.30;;
71977;SDS011;59848;48.158;11.512;2022-08-21T07:35:19;3.90;;;2.40;;
71977;SDS011;59848;48.158;11.512;2022-08-21T07:37:45;5.57;;;2.70;;
71977;SDS011;59848;48.158;11.512;2022-08-21T07:40:12;4.25;;;2.67;;
71977;SDS011;59848;48.158;11.512;2022-08-21T07:42:41;5.18;;;2.92;;
71977;SDS011;59848;48.158;11.512;2022-08-21T07:45:08;4.72;;;3.00;;
71977;SDS011;59848;48.158;11.512;2022-08-21T07:47:35;5.05;;;2.83;;
71977;SDS011;59848;48.158;11.512;2022-08-21T07:50:00;4.35;;;3.17;;
71977;SDS011;59848;48.158;11.512;2022-08-21T07:52:26;4.93;;;3.00;;
71977;SDS011;59848;48.158;11.512;2022-08-21T07:54:52;3.72;;;2.97;;
71977;SDS011;59848;48.158;11.512;2022-08-21T07:57:18;4.22;;;3.28;;
71977;SDS011;59848;48.158;11.512;2022-08-21T07:59:43;5.47;;;3.45;;
71977;SDS011;59848;48.158;11.512;2022-08-21T08:02:09;5.32;;;3.20;;
71977;SDS011;59848;48.158;11.512;2022-08-21T08:04:34;4.75;;;3.60;;
71977;SDS011;59848;48.158;11.512;2022-08-21T08:07:00;4.25;;;2.72;;
71977;SDS011;59848;48.158;11.512;2022-08-21T08:09:25;7.88;;;2.85;;
71977;SDS011;59848;48.158;11.512;2022-08-21T08:11:51;5.43;;;3.17;;
71977;SDS011;59848;48.158;11.512;2022-08-21T08:14:16;5.60;;;3.00;;
71977;SDS011;59848;48.158;11.512;2022-08-21T08:16:42;5.45;;;3.00;;
71977;SDS011;59848;48.158;11.512;2022-08-21T08:19:07;4.63;;;3.13;;
71977;SDS011;59848;48.158;11.512;2022-08-21T08:21:33;3.80;;;2.85;;
71977;SDS011;59848;48.158;11.512;2022-08-21T08:23:59;4.55;;;2.85;;
71977;SDS011;59848;48.158;11.512;2022-08-21T08:26:25;5.80;;;3.05;;
71977;SDS011;59848;48.158;11.512;2022-08-21T08:28:51;3.20;;;2.50;;
71977;SDS011;59848;48.158;11.512;2022-08-21T08:31:16;2.95;;;2.60;;
71977;SDS011;59848;48.158;11.512;2022-08-21T08:33:42;4.47;;;3.10;;
71977;SDS011;59848;48.158;11.512;2022-08-21T08:36:16;4.45;;;2.83;;
71977;SDS011;59848;48.158;11.512;2022-08-21T08:38:43;4.95;;;2.92;;
71977;SDS011;59848;48.158;11.512;2022-08-21T08:41:12;4.22;;;3.03;;
71977;SDS011;59848;48.158;11.512;2022-08-21T08:43:39;7.13;;;3.20;;
71977;SDS011;59848;48.158;11.512;2022-08-21T08:46:11;6.22;;;3.42;;
71977;SDS011;59848;48.158;11.512;2022-08-21T08:48:46;4.82;;;3.33;;
71977;SDS011;59848;48.158;11.512;2022-08-21T08:51:19;5.05;;;3.70;;
71977;SDS011;59848;48.158;11.512;2022-08-21T08:56:18;5.65;;;3.20;;
71977;SDS011;59848;48.158;11.512;2022-08-21T08:58:51;6.88;;;3.00;;
71977;SDS011;59848;48.158;11.512;2022-08-21T09:01:18;4.40;;;3.05;;
71977;SDS011;59848;48.158;11.512;2022-08-21T09:03:45;4.95;;;3.28;;
71977;SDS011;59848;48.158;11.512;2022-08-21T09:08:54;6.35;;;3.17;;
71977;SDS011;59848;48.158;11.512;2022-08-21T09:14:41;5.82;;;3.38;;
71977;SDS011;59848;48.158;11.512;2022-08-21T09:17:43;4.50;;;3.15;;
71977;SDS011;59848;48.158;11.512;2022-08-21T09:23:15;4.50;;;3.10;;
71977;SDS011;59848;48.158;11.512;2022-08-21T09:28:34;4.10;;;3.25;;
71977;SDS011;59848;48.158;11.512;2022-08-21T09:31:02;4.15;;;3.10;;
71977;SDS011;59848;48.158;11.512;2022-08-21T09:33:30;3.85;;;3.00;;
71977;SDS011;59848;48.158;11.512;2022-08-21T09:35:56;3.38;;;2.90;;
71977;SDS011;59848;48.158;11.512;2022-08-21T09:40:57;3.38;;;2.90;;
71977;SDS011;59848;48.158;11.512;2022-08-21T09:43:31;3.70;;;2.83;;
71977;SDS011;59848;48.158;11.512;2022-08-21T09:46:49;4.60;;;3.20;;
71977;SDS011;59848;48.158;11.512;2022-08-21T09:48:52;3.95;;;2.97;;
71977;SDS011;59848;48.158;11.512;2022-08-21T09:51:21;4.80;;;2.65;;
71977;SDS011;59848;48.158;11.512;2022-08-21T09:54:23;3.60;;;2.72;;
71977;SDS011;59848;48.158;11.512;2022-08-21T09:56:55;3.60;;;2.65;;
71977;SDS011;59848;48.158;11.512;2022-08-21T09:59:48;4.30;;;2.47;;
71977;SDS011;59848;48.158;11.512;2022-08-21T10:02:24;3.53;;;3.15;;
71977;SDS011;59848;48.158;11.512;2022-08-21T10:04:55;4.53;;;3.08;;
71977;SDS011;59848;48.158;11.512;2022-08-21T10:07:27;4.47;;;2.83;;
71977;SDS011;59848;48.158;11.512;2022-08-21T10:09:58;3.70;;;2.80;;
71977;SDS011;59848;48.158;11.512;2022-08-21T10:13:13;4.18;;;3.00;;
71977;SDS011;59848;48.158;11.512;2022-08-21T10:18:07;3.10;;;2.45;;
71977;SDS011;59848;48.158;11.512;2022-08-21T10:20:47;4.53;;;2.90;;
71977;SDS011;59848;48.158;11.512;2022-08-21T10:23:40;3.22;;;2.28;;
71977;SDS011;59848;48.158;11.512;2022-08-21T10:26:36;3.60;;;2.63;;
71977;SDS011;59848;48.158;11.512;2022-08-21T10:32:26;5.72;;;3.00;;
71977;SDS011;59848;48.158;11.512;2022-08-21T10:35:10;3.20;;;2.90;;
71977;SDS011;59848;48.158;11.512;2022-08-21T10:37:42;2.80;;;2.60;;
71977;SDS011;59848;48.158;11.512;2022-08-21T10:40:26;2.65;;;2.40;;
71977;SDS011;59848;48.158;11.512;2022-08-21T10:43:08;3.97;;;2.85;;
71977;SDS011;59848;48.158;11.512;2022-08-21T10:45:52;2.88;;;2.60;;
71977;SDS011;59848;48.158;11.512;2022-08-21T10:48:23;3.55;;;3.08;;
71977;SDS011;59848;48.158;11.512;2022-08-21T10:50:55;3.42;;;2.75;;
71977;SDS011;59848;48.158;11.512;2022-08-21T10:53:55;4.88;;;2.58;;
71977;SDS011;59848;48.158;11.512;2022-08-21T10:56:43;3.80;;;2.80;;
71977;SDS011;59848;48.158;11.512;2022-08-21T11:02:22;4.82;;;2.67;;
71977;SDS011;59848;48.158;11.512;2022-08-21T11:05:01;3.95;;;2.80;;
71977;SDS011;59848;48.158;11.512;2022-08-21T11:07:47;4.63;;;3.28;;
71977;SDS011;59848;48.158;11.512;2022-08-21T11:10:33;4.45;;;2.70;;
71977;SDS011;59848;48.158;11.512;2022-08-21T11:16:18;4.13;;;3.28;;
71977;SDS011;59848;48.158;11.512;2022-08-21T11:18:53;4.50;;;3.20;;
71977;SDS011;59848;48.158;11.512;2022-08-21T11:26:39;3.70;;;2.70;;
71977;SDS011;59848;48.158;11.512;2022-08-21T11:34:21;4.18;;;3.10;;
71977;SDS011;59848;48.158;11.512;2022-08-21T11:37:19;3.47;;;2.72;;
71977;SDS011;59848;48.158;11.512;2022-08-21T11:40:04;2.97;;;2.67;;
71977;SDS011;59848;48.158;11.512;2022-08-21T11:42:39;3.92;;;2.42;;
71977;SDS011;59848;48.158;11.512;2022-08-21T11:45:54;3.83;;;2.28;;
71977;SDS011;59848;48.158;11.512;2022-08-21T11:51:04;3.33;;;2.40;;
71977;SDS011;59848;48.158;11.512;2022-08-21T11:53:37;2.75;;;1.98;;
71977;SDS011;59848;48.158;11.512;2022-08-21T11:56:17;2.40;;;2.10;;
71977;SDS011;59848;48.158;11.512;2022-08-21T11:58:48;3.33;;;1.80;;
71977;SDS011;59848;48.158;11.512;2022-08-21T12:01:19;2.42;;;1.75;;
71977;SDS011;59848;48.158;11.512;2022-08-21T12:03:57;2.88;;;2.10;;
71977;SDS011;59848;48.158;11.512;2022-08-21T12:06:37;3.67;;;1.93;;
71977;SDS011;59848;48.158;11.512;2022-08-21T12:09:07;4.85;;;2.15;;
71977;SDS011;59848;48.158;11.512;2022-08-21T12:11:48;3.17;;;2.10;;
71977;SDS011;59848;48.158;11.512;2022-08-21T12:14:17;2.20;;;1.90;;
71977;SDS011;59848;48.158;11.512;2022-08-21T12:16:47;3.25;;;2.10;;
71977;SDS011;59848;48.158;11.512;2022-08-21T12:27:13;2.10;;;1.80;;
71977;SDS011;59848;48.158;11.512;2022-08-21T12:32:28;3.10;;;1.90;;
71977;SDS011;59848;48.158;11.512;2022-08-21T12:37:45;3.40;;;2.10;;
71977;SDS011;59848;48.158;11.512;2022-08-21T12:42:48;2.30;;;1.83;;
71977;SDS011;59848;48.158;11.512;2022-08-21T12:45:18;3.15;;;2.00;;
71977;SDS011;59848;48.158;11.512;2022-08-21T12:47:51;3.28;;;2.17;;
71977;SDS011;59848;48.158;11.512;2022-08-21T12:50:38;2.78;;;2.00;;
71977;SDS011;59848;48.158;11.512;2022-08-21T12:55:40;3.33;;;2.17;;
71977;SDS011;59848;48.158;11.512;2022-08-21T12:58:16;2.63;;;2.00;;
71977;SDS011;59848;48.158;11.512;2022-08-21T13:00:47;3.05;;;2.10;;
71977;SDS011;59848;48.158;11.512;2022-08-21T13:03:20;2.22;;;1.85;;
71977;SDS011;59848;48.158;11.512;2022-08-21T13:05:47;4.03;;;2.00;;
71977;SDS011;59848;48.158;11.512;2022-08-21T13:08:16;2.80;;;1.70;;
71977;SDS011;59848;48.158;11.512;2022-08-21T13:10:44;2.72;;;2.10;;
71977;SDS011;59848;48.158;11.512;2022-08-21T13:13:17;2.78;;;1.98;;
71977;SDS011;59848;48.158;11.512;2022-08-21T13:15:46;4.05;;;2.00;;
71977;SDS011;59848;48.158;11.512;2022-08-21T13:18:23;3.10;;;1.85;;
71977;SDS011;59848;48.158;11.512;2022-08-21T13:20:50;2.70;;;1.75;;
71977;SDS011;59848;48.158;11.512;2022-08-21T13:23:23;2.25;;;1.95;;
71977;SDS011;59848;48.158;11.512;2022-08-21T13:25:54;2.53;;;2.08;;
71977;SDS011;59848;48.158;11.512;2022-08-21T13:28:20;4.13;;;2.30;;
71977;SDS011;59848;48.158;11.512;2022-08-21T13:30:50;3.10;;;2.10;;
71977;SDS011;59848;48.158;11.512;2022-08-21T13:33:19;3.08;;;2.30;;
71977;SDS011;59848;48.158;11.512;2022-08-21T13:35:49;4.10;;;2.40;;
71977;SDS011;59848;48.158;11.512;2022-08-21T13:38:22;2.92;;;2.10;;
71977;SDS011;59848;48.158;11.512;2022-08-21T13:43:48;3.05;;;2.05;;
71977;SDS011;59848;48.158;11.512;2022-08-21T13:46:16;4.68;;;2.13;;
71977;SDS011;59848;48.158;11.512;2022-08-21T13:48:46;3.50;;;1.98;;
71977;SDS011;59848;48.158;11.512;2022-08-21T13:51:12;3.63;;;2.13;;
71977;SDS011;59848;48.158;11.512;2022-08-21T13:56:06;2.20;;;2.00;;
71977;SDS011;59848;48.158;11.512;2022-08-21T13:58:42;3.05;;;2.10;;
71977;SDS011;59848;48.158;11.512;2022-08-21T14:04:17;3.45;;;2.35;;
71977;SDS011;59848;48.158;11.512;2022-08-21T14:06:46;3.53;;;1.90;;
71977;SDS011;59848;48.158;11.512;2022-08-21T14:09:25;2.85;;;1.80;;
71977;SDS011;59848;48.158;11.512;2022-08-21T14:11:57;3.40;;;2.00;;
71977;SDS011;59848;48.158;11.512;2022-08-21T14:14:30;3.20;;;1.70;;
71977;SDS011;59848;48.158;11.512;2022-08-21T14:17:00;2.90;;;1.95;;
71977;SDS011;59848;48.158;11.512;2022-08-21T14:19:38;2.95;;;1.92;;
71977;SDS011;59848;48.158;11.512;2022-08-21T14:25:00;2.15;;;1.80;;
71977;SDS011;59848;48.158;11.512;2022-08-21T14:27:28;4.05;;;1.75;;
71977;SDS011;59848;48.158;11.512;2022-08-21T14:30:00;1.85;;;1.70;;
71977;SDS011;59848;48.158;11.512;2022-08-21T14:32:30;2.00;;;1.70;;
71977;SDS011;59848;48.158;11.512;2022-08-21T14:35:03;2.58;;;1.80;;
71977;SDS011;59848;48.158;11.512;2022-08-21T14:37:28;3.83;;;2.20;;
71977;SDS011;59848;48.158;11.512;2022-08-21T14:39:54;2.78;;;2.05;;
71977;SDS011;59848;48.158;11.512;2022-08-21T14:42:20;2.40;;;1.98;;
71977;SDS011;59848;48.158;11.512;2022-08-21T14:44:45;2.60;;;2.10;;
71977;SDS011;59848;48.158;11.512;2022-08-21T14:47:11;3.45;;;2.13;;
71977;SDS011;59848;48.158;11.512;2022-08-21T14:49:37;3.95;;;2.03;;
71977;SDS011;59848;48.158;11.512;2022-08-21T14:52:03;3.00;;;2.17;;
71977;SDS011;59848;48.158;11.512;2022-08-21T14:54:29;3.22;;;2.00;;
71977;SDS011;59848;48.158;11.512;2022-08-21T14:56:56;4.07;;;2.20;;
71977;SDS011;59848;48.158;11.512;2022-08-21T14:59:23;2.33;;;1.92;;
71977;SDS011;59848;48.158;11.512;2022-08-21T15:01:49;4.15;;;2.30;;
71977;SDS011;59848;48.158;11.512;2022-08-21T15:04:14;4.32;;;2.30;;
71977;SDS011;59848;48.158;11.512;2022-08-21T15:06:40;4.13;;;2.50;;
71977;SDS011;59848;48.158;11.512;2022-08-21T15:09:06;4.78;;;2.20;;
71977;SDS011;59848;48.158;11.512;2022-08-21T15:11:32;4.43;;;2.50;;
71977;SDS011;59848;48.158;11.512;2022-08-21T15:13:59;3.35;;;2.15;;
71977;SDS011;59848;48.158;11.512;2022-08-21T15:16:28;3.78;;;2.10;;
71977;SDS011;59848;48.158;11.512;2022-08-21T15:18:56;3.50;;;2.40;;
71977;SDS011;59848;48.158;11.512;2022-08-21T15:21:21;3.88;;;2.38;;
71977;SDS011;59848;48.158;11.512;2022-08-21T15:23:47;3.28;;;2.28;;
71977;SDS011;59848;48.158;11.512;2022-08-21T15:26:13;2.78;;;2.08;;
71977;SDS011;59848;48.158;11.512;2022-08-21T15:28:39;3.70;;;2.42;;
71977;SDS011;59848;48.158;11.512;2022-08-21T15:31:05;2.50;;;2.05;;
71977;SDS011;59848;48.158;11.512;2022-08-21T15:33:31;3.33;;;2.40;;
71977;SDS011;59848;48.158;11.512;2022-08-21T15:35:56;5.55;;;2.40;;
71977;SDS011;59848;48.158;11.512;2022-08-21T15:38:22;5.15;;;2.40;;
71977;SDS011;59848;48.158;11.512;2022-08-21T15:40:48;2.60;;;2.05;;
71977;SDS011;59848;48.158;11.512;2022-08-21T15:43:37;2.60;;;2.15;;
71977;SDS011;59848;48.158;11.512;2022-08-21T15:46:13;3.45;;;2.15;;
71977;SDS011;59848;48.158;11.512;2022-08-21T15:48:40;3.65;;;2.03;;
71977;SDS011;59848;48.158;11.512;2022-08-21T15:51:06;3.65;;;2.30;;
71977;SDS011;59848;48.158;11.512;2022-08-21T15:53:31;2.65;;;2.20;;
71977;SDS011;59848;48.158;11.512;2022-08-21T15:56:00;3.95;;;2.13;;
71977;SDS011;59848;48.158;11.512;2022-08-21T15:58:27;2.90;;;2.22;;
71977;SDS011;59848;48.158;11.512;2022-08-21T16:00:52;2.50;;;1.85;;
71977;SDS011;59848;48.158;11.512;2022-08-21T16:03:18;4.20;;;2.30;;